sensor_id;sensor_type;location;lat;lon;timestamp;P1;durP1;ratioP1;P2;durP2;ratioP2
12774;SDS011;6451;42.630;23.382;2023-08-06T00:01:01;3.50;;;3.10;;
12774;SDS011;6451;42.630;23.382;2023-08-06T00:03:28;4.63;;;3.42;;
12774;SDS011;6451;42.630;23.382;2023-08-06T00:05:55;5.70;;;3.55;;
12774;SDS011;6451;42.630;23.382;2023-08-06T00:08:22;9.00;;;4.70;;
12774;SDS011;6451;42.630;23.382;2023-08-06T00:10:49;12.57;;;5.05;;
12774;SDS011;6451;42.630;23.382;2023-08-06T00:13:16;5.78;;;3.67;;
12774;SDS011;6451;42.630;23.382;2023-08-06T00:15:43;6.25;;;4.10;;
12774;SDS011;6451;42.630;23.382;2023-08-06T00:18:12;5.05;;;3.90;;
12774;SDS011;6451;42.630;23.382;2023-08-06T00:20:39;5.40;;;4.05;;
12774;SDS011;6451;42.630;23.382;2023-08-06T00:23:06;6.40;;;4.15;;
12774;SDS011;6451;42.630;23.382;2023-08-06T00:25:33;6.90;;;4.57;;
12774;SDS011;6451;42.630;23.382;2023-08-06T00:28:00;8.23;;;4.80;;
12774;SDS011;6451;42.630;23.382;2023-08-06T00:30:27;4.90;;;4.40;;
12774;SDS011;6451;42.630;23.382;2023-08-06T00:32:54;4.60;;;4.18;;
12774;SDS011;6451;42.630;23.382;2023-08-06T00:35:23;6.88;;;4.50;;
12774;SDS011;6451;42.630;23.382;2023-08-06T00:37:49;8.90;;;4.88;;
12774;SDS011;6451;42.630;23.382;2023-08-06T00:40:18;6.70;;;4.20;;
12774;SDS011;6451;42.630;23.382;2023-08-06T00:42:47;5.25;;;4.65;;
12774;SDS011;6451;42.630;23.382;2023-08-06T00:45:14;7.57;;;4.50;;
12774;SDS011;6451;42.630;23.382;2023-08-06T00:47:41;5.13;;;4.63;;
12774;SDS011;6451;42.630;23.382;2023-08-06T00:50:08;8.38;;;4.70;;
12774;SDS011;6451;42.630;23.382;2023-08-06T00:52:37;4.72;;;3.90;;
12774;SDS011;6451;42.630;23.382;2023-08-06T00:55:04;5.85;;;4.63;;
12774;SDS011;6451;42.630;23.382;2023-08-06T00:57:33;4.22;;;3.80;;
12774;SDS011;6451;42.630;23.382;2023-08-06T01:00:00;4.55;;;3.67;;
12774;SDS011;6451;42.630;23.382;2023-08-06T01:02:29;5.40;;;3.60;;
12774;SDS011;6451;42.630;23.382;2023-08-06T01:04:56;4.40;;;4.00;;
12774;SDS011;6451;42.630;23.382;2023-08-06T01:07:28;5.85;;;3.85;;
12774;SDS011;6451;42.630;23.382;2023-08-06T01:10:14;5.90;;;3.90;;
12774;SDS011;6451;42.630;23.382;2023-08-06T01:12:52;4.47;;;3.47;;
12774;SDS011;6451;42.630;23.382;2023-08-06T01:15:28;5.22;;;3.97;;
12774;SDS011;6451;42.630;23.382;2023-08-06T01:17:57;4.55;;;3.80;;
12774;SDS011;6451;42.630;23.382;2023-08-06T01:20:28;3.78;;;3.47;;
12774;SDS011;6451;42.630;23.382;2023-08-06T01:22:55;4.22;;;3.63;;
12774;SDS011;6451;42.630;23.382;2023-08-06T01:25:22;4.70;;;3.88;;
12774;SDS011;6451;42.630;23.382;2023-08-06T01:27:56;4.00;;;3.60;;
12774;SDS011;6451;42.630;23.382;2023-08-06T01:30:31;5.93;;;3.67;;
12774;SDS011;6451;42.630;23.382;2023-08-06T01:33:04;4.13;;;3.70;;
12774;SDS011;6451;42.630;23.382;2023-08-06T01:35:33;4.65;;;3.80;;
12774;SDS011;6451;42.630;23.382;2023-08-06T01:38:01;4.63;;;3.80;;
12774;SDS011;6451;42.630;23.382;2023-08-06T01:40:29;5.38;;;3.78;;
12774;SDS011;6451;42.630;23.382;2023-08-06T01:42:57;4.53;;;4.07;;
12774;SDS011;6451;42.630;23.382;2023-08-06T01:45:24;3.72;;;3.42;;
12774;SDS011;6451;42.630;23.382;2023-08-06T01:47:51;5.18;;;3.95;;
12774;SDS011;6451;42.630;23.382;2023-08-06T01:50:18;4.20;;;3.40;;
12774;SDS011;6451;42.630;23.382;2023-08-06T01:52:46;4.32;;;3.90;;
12774;SDS011;6451;42.630;23.382;2023-08-06T01:55:13;4.40;;;4.00;;
12774;SDS011;6451;42.630;23.382;2023-08-06T01:57:40;5.97;;;4.30;;
12774;SDS011;6451;42.630;23.382;2023-08-06T02:00:07;5.82;;;4.13;;
12774;SDS011;6451;42.630;23.382;2023-08-06T02:02:34;6.55;;;4.38;;
12774;SDS011;6451;42.630;23.382;2023-08-06T02:05:01;5.40;;;4.90;;
12774;SDS011;6451;42.630;23.382;2023-08-06T02:07:28;5.57;;;4.82;;
12774;SDS011;6451;42.630;23.382;2023-08-06T02:09:56;6.47;;;5.07;;
12774;SDS011;6451;42.630;23.382;2023-08-06T02:12:23;6.78;;;4.60;;
12774;SDS011;6451;42.630;23.382;2023-08-06T02:14:50;5.82;;;4.70;;
12774;SDS011;6451;42.630;23.382;2023-08-06T02:17:17;5.10;;;4.60;;
12774;SDS011;6451;42.630;23.382;2023-08-06T02:19:44;5.57;;;4.53;;
12774;SDS011;6451;42.630;23.382;2023-08-06T02:22:11;6.47;;;4.63;;
12774;SDS011;6451;42.630;23.382;2023-08-06T02:24:38;5.88;;;5.20;;
12774;SDS011;6451;42.630;23.382;2023-08-06T02:27:07;6.18;;;4.75;;
12774;SDS011;6451;42.630;23.382;2023-08-06T02:29:34;5.57;;;5.07;;
12774;SDS011;6451;42.630;23.382;2023-08-06T02:32:01;6.88;;;5.10;;
12774;SDS011;6451;42.630;23.382;2023-08-06T02:34:28;5.68;;;5.07;;
12774;SDS011;6451;42.630;23.382;2023-08-06T02:36:55;5.30;;;4.80;;
12774;SDS011;6451;42.630;23.382;2023-08-06T02:39:22;5.25;;;4.68;;
12774;SDS011;6451;42.630;23.382;2023-08-06T02:41:49;4.65;;;4.25;;
12774;SDS011;6451;42.630;23.382;2023-08-06T02:44:17;6.78;;;4.20;;
12774;SDS011;6451;42.630;23.382;2023-08-06T02:46:44;7.15;;;4.45;;
12774;SDS011;6451;42.630;23.382;2023-08-06T02:49:11;4.47;;;4.07;;
12774;SDS011;6451;42.630;23.382;2023-08-06T02:51:38;5.30;;;4.80;;
12774;SDS011;6451;42.630;23.382;2023-08-06T02:54:05;6.45;;;4.65;;
12774;SDS011;6451;42.630;23.382;2023-08-06T02:56:32;5.22;;;4.72;;
12774;SDS011;6451;42.630;23.382;2023-08-06T02:59:01;5.05;;;4.55;;
12774;SDS011;6451;42.630;23.382;2023-08-06T03:01:29;5.28;;;4.28;;
12774;SDS011;6451;42.630;23.382;2023-08-06T03:03:56;5.68;;;4.93;;
12774;SDS011;6451;42.630;23.382;2023-08-06T03:06:23;6.80;;;5.05;;
12774;SDS011;6451;42.630;23.382;2023-08-06T03:08:50;6.57;;;4.80;;
12774;SDS011;6451;42.630;23.382;2023-08-06T03:11:17;5.63;;;4.57;;
12774;SDS011;6451;42.630;23.382;2023-08-06T03:13:44;5.20;;;4.70;;
12774;SDS011;6451;42.630;23.382;2023-08-06T03:16:11;5.63;;;5.05;;
12774;SDS011;6451;42.630;23.382;2023-08-06T03:18:39;7.50;;;5.25;;
12774;SDS011;6451;42.630;23.382;2023-08-06T03:21:06;5.85;;;5.20;;
12774;SDS011;6451;42.630;23.382;2023-08-06T03:23:33;6.63;;;5.57;;
12774;SDS011;6451;42.630;23.382;2023-08-06T03:26:00;6.05;;;5.18;;
12774;SDS011;6451;42.630;23.382;2023-08-06T03:28:28;9.68;;;5.40;;
12774;SDS011;6451;42.630;23.382;2023-08-06T03:30:58;6.13;;;5.57;;
12774;SDS011;6451;42.630;23.382;2023-08-06T03:33:26;7.90;;;5.88;;
12774;SDS011;6451;42.630;23.382;2023-08-06T03:35:54;6.03;;;5.45;;
12774;SDS011;6451;42.630;23.382;2023-08-06T03:38:21;6.10;;;5.50;;
12774;SDS011;6451;42.630;23.382;2023-08-06T03:40:49;7.70;;;5.97;;
12774;SDS011;6451;42.630;23.382;2023-08-06T03:43:16;7.53;;;5.93;;
12774;SDS011;6451;42.630;23.382;2023-08-06T03:45:44;6.18;;;5.53;;
12774;SDS011;6451;42.630;23.382;2023-08-06T03:48:11;6.85;;;5.22;;
12774;SDS011;6451;42.630;23.382;2023-08-06T03:50:39;5.32;;;4.82;;
12774;SDS011;6451;42.630;23.382;2023-08-06T03:53:07;5.90;;;5.28;;
12774;SDS011;6451;42.630;23.382;2023-08-06T03:55:34;6.90;;;5.30;;
12774;SDS011;6451;42.630;23.382;2023-08-06T03:58:01;8.27;;;5.32;;
12774;SDS011;6451;42.630;23.382;2023-08-06T04:00:28;6.38;;;5.45;;
12774;SDS011;6451;42.630;23.382;2023-08-06T04:02:55;8.10;;;5.50;;
12774;SDS011;6451;42.630;23.382;2023-08-06T04:05:23;6.22;;;4.93;;
12774;SDS011;6451;42.630;23.382;2023-08-06T04:07:50;7.97;;;4.90;;
12774;SDS011;6451;42.630;23.382;2023-08-06T04:10:20;5.18;;;4.40;;
12774;SDS011;6451;42.630;23.382;2023-08-06T04:12:47;6.32;;;4.47;;
12774;SDS011;6451;42.630;23.382;2023-08-06T04:15:14;5.22;;;4.50;;
12774;SDS011;6451;42.630;23.382;2023-08-06T04:17:41;6.88;;;4.80;;
12774;SDS011;6451;42.630;23.382;2023-08-06T04:20:08;4.70;;;4.20;;
12774;SDS011;6451;42.630;23.382;2023-08-06T04:22:36;5.53;;;4.15;;
12774;SDS011;6451;42.630;23.382;2023-08-06T04:25:04;5.53;;;4.47;;
12774;SDS011;6451;42.630;23.382;2023-08-06T04:27:33;5.80;;;4.25;;
12774;SDS011;6451;42.630;23.382;2023-08-06T04:30:02;5.38;;;4.35;;
12774;SDS011;6451;42.630;23.382;2023-08-06T04:32:30;5.00;;;4.50;;
12774;SDS011;6451;42.630;23.382;2023-08-06T04:34:58;7.43;;;4.47;;
12774;SDS011;6451;42.630;23.382;2023-08-06T04:37:26;6.82;;;4.07;;
12774;SDS011;6451;42.630;23.382;2023-08-06T04:39:53;4.30;;;3.90;;
12774;SDS011;6451;42.630;23.382;2023-08-06T04:42:20;5.60;;;3.72;;
12774;SDS011;6451;42.630;23.382;2023-08-06T04:44:54;4.00;;;3.60;;
12774;SDS011;6451;42.630;23.382;2023-08-06T04:47:21;4.45;;;4.07;;
12774;SDS011;6451;42.630;23.382;2023-08-06T04:49:48;4.65;;;4.22;;
12774;SDS011;6451;42.630;23.382;2023-08-06T04:52:15;4.43;;;4.00;;
12774;SDS011;6451;42.630;23.382;2023-08-06T04:54:43;4.45;;;4.05;;
12774;SDS011;6451;42.630;23.382;2023-08-06T04:57:10;5.05;;;4.20;;
12774;SDS011;6451;42.630;23.382;2023-08-06T04:59:37;4.43;;;4.03;;
12774;SDS011;6451;42.630;23.382;2023-08-06T05:02:06;4.50;;;4.10;;
12774;SDS011;6451;42.630;23.382;2023-08-06T05:04:33;4.68;;;4.28;;
12774;SDS011;6451;42.630;23.382;2023-08-06T05:07:01;6.05;;;4.40;;
12774;SDS011;6451;42.630;23.382;2023-08-06T05:09:28;4.35;;;3.92;;
12774;SDS011;6451;42.630;23.382;2023-08-06T05:11:56;4.53;;;4.13;;
12774;SDS011;6451;42.630;23.382;2023-08-06T05:14:23;6.65;;;4.20;;
12774;SDS011;6451;42.630;23.382;2023-08-06T05:16:50;4.68;;;4.28;;
12774;SDS011;6451;42.630;23.382;2023-08-06T05:19:18;4.78;;;4.13;;
12774;SDS011;6451;42.630;23.382;2023-08-06T05:21:46;4.60;;;4.20;;
12774;SDS011;6451;42.630;23.382;2023-08-06T05:24:13;4.95;;;4.55;;
12774;SDS011;6451;42.630;23.382;2023-08-06T05:26:40;5.28;;;4.85;;
12774;SDS011;6451;42.630;23.382;2023-08-06T05:29:07;7.03;;;6.43;;
12774;SDS011;6451;42.630;23.382;2023-08-06T05:31:34;10.05;;;7.60;;
12774;SDS011;6451;42.630;23.382;2023-08-06T05:34:01;8.57;;;7.78;;
12774;SDS011;6451;42.630;23.382;2023-08-06T05:36:29;7.68;;;6.90;;
12774;SDS011;6451;42.630;23.382;2023-08-06T05:38:56;6.68;;;6.07;;
12774;SDS011;6451;42.630;23.382;2023-08-06T05:41:25;6.25;;;5.65;;
12774;SDS011;6451;42.630;23.382;2023-08-06T05:43:52;7.07;;;6.47;;
12774;SDS011;6451;42.630;23.382;2023-08-06T05:46:19;6.90;;;6.10;;
12774;SDS011;6451;42.630;23.382;2023-08-06T05:48:46;6.22;;;5.68;;
12774;SDS011;6451;42.630;23.382;2023-08-06T05:51:13;6.55;;;5.28;;
12774;SDS011;6451;42.630;23.382;2023-08-06T05:53:42;6.88;;;5.00;;
12774;SDS011;6451;42.630;23.382;2023-08-06T05:56:11;5.75;;;5.25;;
12774;SDS011;6451;42.630;23.382;2023-08-06T05:58:38;6.65;;;5.57;;
12774;SDS011;6451;42.630;23.382;2023-08-06T06:01:05;6.38;;;5.63;;
12774;SDS011;6451;42.630;23.382;2023-08-06T06:03:36;6.15;;;5.55;;
12774;SDS011;6451;42.630;23.382;2023-08-06T06:06:07;6.45;;;5.72;;
12774;SDS011;6451;42.630;23.382;2023-08-06T06:08:36;8.32;;;6.75;;
12774;SDS011;6451;42.630;23.382;2023-08-06T06:11:11;7.70;;;7.00;;
12774;SDS011;6451;42.630;23.382;2023-08-06T06:13:47;7.90;;;7.15;;
12774;SDS011;6451;42.630;23.382;2023-08-06T06:16:17;6.82;;;6.13;;
12774;SDS011;6451;42.630;23.382;2023-08-06T06:18:44;7.85;;;7.15;;
12774;SDS011;6451;42.630;23.382;2023-08-06T06:21:11;7.85;;;6.40;;
12774;SDS011;6451;42.630;23.382;2023-08-06T06:23:38;8.35;;;7.38;;
12774;SDS011;6451;42.630;23.382;2023-08-06T06:26:05;7.85;;;7.13;;
12774;SDS011;6451;42.630;23.382;2023-08-06T06:28:34;7.72;;;7.10;;
12774;SDS011;6451;42.630;23.382;2023-08-06T06:31:01;8.20;;;7.55;;
12774;SDS011;6451;42.630;23.382;2023-08-06T06:33:28;9.07;;;8.23;;
12774;SDS011;6451;42.630;23.382;2023-08-06T06:35:55;10.48;;;8.40;;
12774;SDS011;6451;42.630;23.382;2023-08-06T06:38:22;9.50;;;8.57;;
12774;SDS011;6451;42.630;23.382;2023-08-06T06:40:55;10.27;;;7.03;;
12774;SDS011;6451;42.630;23.382;2023-08-06T06:43:23;9.52;;;8.30;;
12774;SDS011;6451;42.630;23.382;2023-08-06T06:45:55;9.90;;;8.02;;
12774;SDS011;6451;42.630;23.382;2023-08-06T06:48:24;4.13;;;3.80;;
12774;SDS011;6451;42.630;23.382;2023-08-06T06:50:51;5.45;;;4.07;;
12774;SDS011;6451;42.630;23.382;2023-08-06T06:53:18;4.38;;;4.03;;
12774;SDS011;6451;42.630;23.382;2023-08-06T06:55:56;4.30;;;3.90;;
12774;SDS011;6451;42.630;23.382;2023-08-06T06:58:28;5.60;;;3.95;;
12774;SDS011;6451;42.630;23.382;2023-08-06T07:00:57;3.75;;;3.38;;
12774;SDS011;6451;42.630;23.382;2023-08-06T07:03:24;4.18;;;3.78;;
12774;SDS011;6451;42.630;23.382;2023-08-06T07:05:51;4.60;;;3.70;;
12774;SDS011;6451;42.630;23.382;2023-08-06T07:08:18;4.55;;;4.07;;
12774;SDS011;6451;42.630;23.382;2023-08-06T07:10:47;4.78;;;4.25;;
12774;SDS011;6451;42.630;23.382;2023-08-06T07:13:14;5.78;;;5.28;;
12774;SDS011;6451;42.630;23.382;2023-08-06T07:15:41;7.75;;;6.63;;
12774;SDS011;6451;42.630;23.382;2023-08-06T07:18:10;7.90;;;7.20;;
12774;SDS011;6451;42.630;23.382;2023-08-06T07:20:36;8.00;;;7.18;;
12774;SDS011;6451;42.630;23.382;2023-08-06T07:23:04;7.03;;;5.82;;
12774;SDS011;6451;42.630;23.382;2023-08-06T07:25:31;5.72;;;5.22;;
12774;SDS011;6451;42.630;23.382;2023-08-06T07:27:58;4.93;;;4.40;;
12774;SDS011;6451;42.630;23.382;2023-08-06T07:30:27;4.82;;;4.32;;
12774;SDS011;6451;42.630;23.382;2023-08-06T07:32:54;4.63;;;4.22;;
12774;SDS011;6451;42.630;23.382;2023-08-06T07:35:22;3.92;;;3.63;;
12774;SDS011;6451;42.630;23.382;2023-08-06T07:37:49;4.07;;;3.67;;
12774;SDS011;6451;42.630;23.382;2023-08-06T07:40:16;4.93;;;3.90;;
12774;SDS011;6451;42.630;23.382;2023-08-06T07:42:44;4.65;;;4.25;;
12774;SDS011;6451;42.630;23.382;2023-08-06T07:45:11;3.60;;;3.30;;
12774;SDS011;6451;42.630;23.382;2023-08-06T07:47:38;3.20;;;2.90;;
12774;SDS011;6451;42.630;23.382;2023-08-06T07:50:05;3.20;;;2.97;;
12774;SDS011;6451;42.630;23.382;2023-08-06T07:52:34;3.30;;;3.00;;
12774;SDS011;6451;42.630;23.382;2023-08-06T07:55:01;3.45;;;2.90;;
12774;SDS011;6451;42.630;23.382;2023-08-06T07:57:31;3.78;;;3.00;;
12774;SDS011;6451;42.630;23.382;2023-08-06T07:59:59;3.63;;;3.28;;
12774;SDS011;6451;42.630;23.382;2023-08-06T08:02:28;4.10;;;3.15;;
12774;SDS011;6451;42.630;23.382;2023-08-06T08:04:55;3.25;;;3.00;;
12774;SDS011;6451;42.630;23.382;2023-08-06T08:07:22;3.60;;;3.15;;
12774;SDS011;6451;42.630;23.382;2023-08-06T08:09:51;3.47;;;3.20;;
12774;SDS011;6451;42.630;23.382;2023-08-06T08:12:18;3.72;;;3.40;;
12774;SDS011;6451;42.630;23.382;2023-08-06T08:14:45;3.47;;;3.17;;
12774;SDS011;6451;42.630;23.382;2023-08-06T08:17:12;3.75;;;3.33;;
12774;SDS011;6451;42.630;23.382;2023-08-06T08:19:39;3.30;;;3.00;;
12774;SDS011;6451;42.630;23.382;2023-08-06T08:22:06;3.95;;;2.95;;
12774;SDS011;6451;42.630;23.382;2023-08-06T08:24:34;3.90;;;3.05;;
12774;SDS011;6451;42.630;23.382;2023-08-06T08:27:02;3.33;;;2.85;;
12774;SDS011;6451;42.630;23.382;2023-08-06T08:29:31;3.55;;;3.35;;
12774;SDS011;6451;42.630;23.382;2023-08-06T08:31:57;4.35;;;3.40;;
12774;SDS011;6451;42.630;23.382;2023-08-06T08:34:24;4.50;;;3.35;;
12774;SDS011;6451;42.630;23.382;2023-08-06T08:36:51;4.18;;;3.80;;
12774;SDS011;6451;42.630;23.382;2023-08-06T08:39:18;4.00;;;3.70;;
12774;SDS011;6451;42.630;23.382;2023-08-06T08:41:46;4.45;;;3.80;;
12774;SDS011;6451;42.630;23.382;2023-08-06T08:44:16;3.75;;;3.45;;
12774;SDS011;6451;42.630;23.382;2023-08-06T08:46:44;4.20;;;3.80;;
12774;SDS011;6451;42.630;23.382;2023-08-06T08:49:15;4.07;;;3.33;;
12774;SDS011;6451;42.630;23.382;2023-08-06T08:51:43;4.38;;;3.80;;
12774;SDS011;6451;42.630;23.382;2023-08-06T08:54:11;3.50;;;2.85;;
12774;SDS011;6451;42.630;23.382;2023-08-06T08:56:42;3.72;;;3.10;;
12774;SDS011;6451;42.630;23.382;2023-08-06T08:59:09;4.53;;;3.20;;
12774;SDS011;6451;42.630;23.382;2023-08-06T09:01:38;3.85;;;3.00;;
12774;SDS011;6451;42.630;23.382;2023-08-06T09:04:06;3.40;;;3.10;;
12774;SDS011;6451;42.630;23.382;2023-08-06T09:06:33;4.45;;;2.92;;
12774;SDS011;6451;42.630;23.382;2023-08-06T09:09:06;3.63;;;3.33;;
12774;SDS011;6451;42.630;23.382;2023-08-06T09:11:35;3.78;;;3.47;;
12774;SDS011;6451;42.630;23.382;2023-08-06T09:14:06;3.38;;;2.90;;
12774;SDS011;6451;42.630;23.382;2023-08-06T09:16:34;3.75;;;3.28;;
12774;SDS011;6451;42.630;23.382;2023-08-06T09:19:07;3.95;;;3.22;;
12774;SDS011;6451;42.630;23.382;2023-08-06T09:21:41;5.68;;;3.15;;
12774;SDS011;6451;42.630;23.382;2023-08-06T09:24:08;3.75;;;3.45;;
12774;SDS011;6451;42.630;23.382;2023-08-06T09:26:36;3.20;;;3.00;;
12774;SDS011;6451;42.630;23.382;2023-08-06T09:29:04;3.60;;;3.28;;
12774;SDS011;6451;42.630;23.382;2023-08-06T09:31:33;4.55;;;3.05;;
12774;SDS011;6451;42.630;23.382;2023-08-06T09:34:00;3.30;;;3.00;;
12774;SDS011;6451;42.630;23.382;2023-08-06T09:36:30;3.22;;;2.90;;
12774;SDS011;6451;42.630;23.382;2023-08-06T09:38:57;3.40;;;3.10;;
12774;SDS011;6451;42.630;23.382;2023-08-06T09:41:26;3.88;;;3.00;;
12774;SDS011;6451;42.630;23.382;2023-08-06T09:43:55;3.10;;;2.80;;
12774;SDS011;6451;42.630;23.382;2023-08-06T09:46:23;2.90;;;2.70;;
12774;SDS011;6451;42.630;23.382;2023-08-06T09:48:50;3.00;;;2.63;;
12774;SDS011;6451;42.630;23.382;2023-08-06T09:51:17;3.28;;;2.65;;
12774;SDS011;6451;42.630;23.382;2023-08-06T09:53:45;3.60;;;2.55;;
12774;SDS011;6451;42.630;23.382;2023-08-06T09:56:15;3.35;;;2.90;;
12774;SDS011;6451;42.630;23.382;2023-08-06T09:58:44;3.38;;;2.75;;
12774;SDS011;6451;42.630;23.382;2023-08-06T10:01:12;4.20;;;2.65;;
12774;SDS011;6451;42.630;23.382;2023-08-06T10:03:40;2.97;;;2.75;;
12774;SDS011;6451;42.630;23.382;2023-08-06T10:06:07;3.63;;;3.33;;
12774;SDS011;6451;42.630;23.382;2023-08-06T10:08:34;3.28;;;2.97;;
12774;SDS011;6451;42.630;23.382;2023-08-06T10:11:03;3.05;;;2.85;;
12774;SDS011;6451;42.630;23.382;2023-08-06T10:13:31;3.33;;;2.83;;
12774;SDS011;6451;42.630;23.382;2023-08-06T10:16:00;2.83;;;2.35;;
12774;SDS011;6451;42.630;23.382;2023-08-06T10:18:28;2.92;;;2.60;;
12774;SDS011;6451;42.630;23.382;2023-08-06T10:20:56;2.60;;;2.40;;
12774;SDS011;6451;42.630;23.382;2023-08-06T10:23:32;3.65;;;3.25;;
12774;SDS011;6451;42.630;23.382;2023-08-06T10:26:03;3.03;;;2.50;;
12774;SDS011;6451;42.630;23.382;2023-08-06T10:28:36;3.30;;;2.40;;
12774;SDS011;6451;42.630;23.382;2023-08-06T10:31:04;2.97;;;2.70;;
12774;SDS011;6451;42.630;23.382;2023-08-06T10:33:41;3.08;;;2.53;;
12774;SDS011;6451;42.630;23.382;2023-08-06T10:36:10;3.80;;;2.90;;
12774;SDS011;6451;42.630;23.382;2023-08-06T10:38:44;2.97;;;2.65;;
12774;SDS011;6451;42.630;23.382;2023-08-06T10:41:29;3.00;;;2.70;;
12774;SDS011;6451;42.630;23.382;2023-08-06T10:44:04;2.85;;;2.42;;
12774;SDS011;6451;42.630;23.382;2023-08-06T10:46:33;3.35;;;2.60;;
12774;SDS011;6451;42.630;23.382;2023-08-06T10:49:01;4.20;;;2.45;;
12774;SDS011;6451;42.630;23.382;2023-08-06T10:51:30;3.58;;;2.05;;
12774;SDS011;6451;42.630;23.382;2023-08-06T10:53:57;2.30;;;2.10;;
12774;SDS011;6451;42.630;23.382;2023-08-06T10:56:25;2.63;;;2.35;;
12774;SDS011;6451;42.630;23.382;2023-08-06T10:58:54;4.10;;;2.42;;
12774;SDS011;6451;42.630;23.382;2023-08-06T11:01:22;3.80;;;2.47;;
12774;SDS011;6451;42.630;23.382;2023-08-06T11:03:49;3.25;;;2.95;;
12774;SDS011;6451;42.630;23.382;2023-08-06T11:06:18;3.72;;;3.08;;
12774;SDS011;6451;42.630;23.382;2023-08-06T11:08:48;3.42;;;2.88;;
12774;SDS011;6451;42.630;23.382;2023-08-06T11:11:17;3.53;;;3.05;;
12774;SDS011;6451;42.630;23.382;2023-08-06T11:13:46;3.22;;;2.65;;
12774;SDS011;6451;42.630;23.382;2023-08-06T11:16:14;3.50;;;2.55;;
12774;SDS011;6451;42.630;23.382;2023-08-06T11:18:43;3.45;;;2.58;;
12774;SDS011;6451;42.630;23.382;2023-08-06T11:21:11;2.72;;;2.53;;
12774;SDS011;6451;42.630;23.382;2023-08-06T11:23:39;3.72;;;2.58;;
12774;SDS011;6451;42.630;23.382;2023-08-06T11:26:08;3.67;;;2.63;;
12774;SDS011;6451;42.630;23.382;2023-08-06T11:28:35;2.63;;;2.42;;
12774;SDS011;6451;42.630;23.382;2023-08-06T11:31:03;3.63;;;2.70;;
12774;SDS011;6451;42.630;23.382;2023-08-06T11:33:31;2.65;;;2.45;;
12774;SDS011;6451;42.630;23.382;2023-08-06T11:35:58;2.83;;;2.40;;
12774;SDS011;6451;42.630;23.382;2023-08-06T11:38:26;3.47;;;1.92;;
12774;SDS011;6451;42.630;23.382;2023-08-06T11:40:53;3.03;;;2.30;;
12774;SDS011;6451;42.630;23.382;2023-08-06T11:43:21;2.60;;;2.38;;
12774;SDS011;6451;42.630;23.382;2023-08-06T11:45:48;2.97;;;2.50;;
12774;SDS011;6451;42.630;23.382;2023-08-06T11:48:19;3.50;;;2.72;;
12774;SDS011;6451;42.630;23.382;2023-08-06T11:50:46;3.00;;;2.70;;
12774;SDS011;6451;42.630;23.382;2023-08-06T11:53:13;2.70;;;2.50;;
12774;SDS011;6451;42.630;23.382;2023-08-06T11:55:41;3.42;;;2.72;;
12774;SDS011;6451;42.630;23.382;2023-08-06T11:58:09;4.25;;;2.80;;
12774;SDS011;6451;42.630;23.382;2023-08-06T12:00:36;3.25;;;2.80;;
12774;SDS011;6451;42.630;23.382;2023-08-06T12:03:04;4.05;;;2.90;;
12774;SDS011;6451;42.630;23.382;2023-08-06T12:05:34;5.00;;;3.20;;
12774;SDS011;6451;42.630;23.382;2023-08-06T12:08:01;5.15;;;3.13;;
12774;SDS011;6451;42.630;23.382;2023-08-06T12:10:30;3.67;;;3.28;;
12774;SDS011;6451;42.630;23.382;2023-08-06T12:12:57;3.38;;;3.08;;
12774;SDS011;6451;42.630;23.382;2023-08-06T12:15:24;3.53;;;2.80;;
12774;SDS011;6451;42.630;23.382;2023-08-06T12:17:51;3.63;;;3.20;;
12774;SDS011;6451;42.630;23.382;2023-08-06T12:20:18;3.58;;;3.28;;
12774;SDS011;6451;42.630;23.382;2023-08-06T12:22:47;3.58;;;3.28;;
12774;SDS011;6451;42.630;23.382;2023-08-06T12:25:15;3.75;;;3.10;;
12774;SDS011;6451;42.630;23.382;2023-08-06T12:27:42;4.18;;;3.47;;
12774;SDS011;6451;42.630;23.382;2023-08-06T12:30:11;3.80;;;3.45;;
12774;SDS011;6451;42.630;23.382;2023-08-06T12:32:39;4.47;;;3.60;;
12774;SDS011;6451;42.630;23.382;2023-08-06T12:35:06;4.30;;;3.90;;
12774;SDS011;6451;42.630;23.382;2023-08-06T12:37:34;4.00;;;3.70;;
12774;SDS011;6451;42.630;23.382;2023-08-06T12:40:05;4.25;;;3.88;;
12774;SDS011;6451;42.630;23.382;2023-08-06T12:42:34;5.88;;;3.90;;
12774;SDS011;6451;42.630;23.382;2023-08-06T12:45:01;4.43;;;4.03;;
12774;SDS011;6451;42.630;23.382;2023-08-06T12:47:28;4.97;;;4.18;;
12774;SDS011;6451;42.630;23.382;2023-08-06T12:49:55;4.65;;;4.03;;
12774;SDS011;6451;42.630;23.382;2023-08-06T12:52:21;6.03;;;3.97;;
12774;SDS011;6451;42.630;23.382;2023-08-06T12:54:48;5.50;;;4.00;;
12774;SDS011;6451;42.630;23.382;2023-08-06T12:57:18;10.43;;;7.88;;
12774;SDS011;6451;42.630;23.382;2023-08-06T12:59:45;10.55;;;6.85;;
12774;SDS011;6451;42.630;23.382;2023-08-06T13:02:14;9.73;;;6.47;;
12774;SDS011;6451;42.630;23.382;2023-08-06T13:04:41;5.53;;;4.60;;
12774;SDS011;6451;42.630;23.382;2023-08-06T13:07:08;14.00;;;8.18;;
12774;SDS011;6451;42.630;23.382;2023-08-06T13:09:35;15.30;;;9.05;;
12774;SDS011;6451;42.630;23.382;2023-08-06T13:12:02;10.55;;;7.82;;
12774;SDS011;6451;42.630;23.382;2023-08-06T13:14:32;7.07;;;4.95;;
12774;SDS011;6451;42.630;23.382;2023-08-06T13:17:00;4.70;;;4.00;;
12774;SDS011;6451;42.630;23.382;2023-08-06T13:19:27;14.40;;;9.13;;
12774;SDS011;6451;42.630;23.382;2023-08-06T13:22:02;6.55;;;5.10;;
12774;SDS011;6451;42.630;23.382;2023-08-06T13:24:31;9.77;;;6.53;;
12774;SDS011;6451;42.630;23.382;2023-08-06T13:26:59;5.07;;;4.07;;
12774;SDS011;6451;42.630;23.382;2023-08-06T13:29:26;4.15;;;3.70;;
12774;SDS011;6451;42.630;23.382;2023-08-06T13:31:55;4.05;;;3.75;;
12774;SDS011;6451;42.630;23.382;2023-08-06T13:34:21;4.78;;;3.70;;
12774;SDS011;6451;42.630;23.382;2023-08-06T13:36:48;4.43;;;4.03;;
12774;SDS011;6451;42.630;23.382;2023-08-06T13:39:16;5.45;;;4.00;;
12774;SDS011;6451;42.630;23.382;2023-08-06T13:41:43;4.50;;;3.97;;
12774;SDS011;6451;42.630;23.382;2023-08-06T13:44:10;4.93;;;4.40;;
12774;SDS011;6451;42.630;23.382;2023-08-06T13:46:39;4.72;;;4.32;;
12774;SDS011;6451;42.630;23.382;2023-08-06T13:49:09;4.97;;;4.45;;
12774;SDS011;6451;42.630;23.382;2023-08-06T13:51:36;4.28;;;3.97;;
12774;SDS011;6451;42.630;23.382;2023-08-06T13:54:03;7.57;;;4.45;;
12774;SDS011;6451;42.630;23.382;2023-08-06T13:56:32;6.22;;;4.50;;
12774;SDS011;6451;42.630;23.382;2023-08-06T13:58:59;4.50;;;4.10;;
12774;SDS011;6451;42.630;23.382;2023-08-06T14:01:26;4.32;;;3.90;;
12774;SDS011;6451;42.630;23.382;2023-08-06T14:03:54;4.20;;;3.75;;
12774;SDS011;6451;42.630;23.382;2023-08-06T14:06:22;3.97;;;3.67;;
12774;SDS011;6451;42.630;23.382;2023-08-06T14:08:49;6.93;;;5.13;;
12774;SDS011;6451;42.630;23.382;2023-08-06T14:11:16;4.65;;;4.10;;
12774;SDS011;6451;42.630;23.382;2023-08-06T14:13:43;3.88;;;3.58;;
12774;SDS011;6451;42.630;23.382;2023-08-06T14:16:09;4.35;;;3.53;;
12774;SDS011;6451;42.630;23.382;2023-08-06T14:18:38;5.30;;;3.38;;
12774;SDS011;6451;42.630;23.382;2023-08-06T14:21:14;3.75;;;3.42;;
12774;SDS011;6451;42.630;23.382;2023-08-06T14:23:46;3.75;;;3.35;;
12774;SDS011;6451;42.630;23.382;2023-08-06T14:26:12;4.05;;;3.65;;
12774;SDS011;6451;42.630;23.382;2023-08-06T14:28:41;3.78;;;3.47;;
12774;SDS011;6451;42.630;23.382;2023-08-06T14:31:08;4.95;;;3.85;;
12774;SDS011;6451;42.630;23.382;2023-08-06T14:33:35;3.90;;;3.50;;
12774;SDS011;6451;42.630;23.382;2023-08-06T14:36:02;3.97;;;3.65;;
12774;SDS011;6451;42.630;23.382;2023-08-06T14:38:29;4.10;;;3.80;;
12774;SDS011;6451;42.630;23.382;2023-08-06T14:40:57;5.57;;;3.20;;
12774;SDS011;6451;42.630;23.382;2023-08-06T14:43:26;6.50;;;3.30;;
12774;SDS011;6451;42.630;23.382;2023-08-06T14:45:53;5.95;;;3.40;;
12774;SDS011;6451;42.630;23.382;2023-08-06T14:48:20;3.55;;;3.25;;
12774;SDS011;6451;42.630;23.382;2023-08-06T14:50:47;3.67;;;3.30;;
12774;SDS011;6451;42.630;23.382;2023-08-06T14:53:13;4.32;;;3.40;;